createdAt,value
2024-04-14T00:02:56.388Z,1.43
2024-04-14T00:07:58.380Z,1.37
2024-04-14T00:13:00.470Z,1.23
2024-04-14T00:18:02.665Z,1.20
2024-04-14T00:23:05.694Z,1.50
2024-04-14T00:28:07.742Z,1.43
2024-04-14T00:33:09.870Z,1.60
2024-04-14T00:38:12.060Z,1.13
2024-04-14T00:43:16.860Z,1.30
2024-04-14T00:48:19.443Z,1.30
2024-04-14T00:53:23.036Z,1.20
2024-04-14T00:58:26.017Z,1.03
2024-04-14T01:03:28.915Z,1.20
2024-04-14T01:08:31.252Z,0.90
2024-04-14T01:13:33.262Z,1.40
2024-04-14T01:18:35.675Z,1.30
2024-04-14T01:23:38.778Z,1.37
2024-04-14T01:28:40.809Z,1.30
2024-04-14T01:33:43.062Z,1.57
2024-04-14T01:38:45.517Z,1.20
2024-04-14T01:43:47.597Z,1.50
2024-04-14T01:48:49.703Z,0.87
2024-04-14T01:53:51.741Z,1.00
2024-04-14T01:58:53.893Z,1.00
2024-04-14T02:03:56.017Z,1.30
2024-04-14T02:08:59.363Z,0.73
2024-04-14T02:14:03.136Z,1.23
2024-04-14T02:19:06.323Z,0.97
2024-04-14T02:24:08.338Z,1.00
2024-04-14T02:29:10.385Z,1.40
2024-04-14T02:34:12.428Z,1.27
2024-04-14T02:39:14.565Z,0.93
2024-04-14T02:44:18.291Z,1.00
2024-04-14T02:49:20.776Z,1.23
2024-04-14T02:54:23.010Z,0.77
2024-04-14T02:59:25.414Z,1.07
2024-04-14T03:04:27.512Z,1.50
2024-04-14T03:09:29.559Z,1.13
2024-04-14T03:14:31.648Z,1.33
2024-04-14T03:19:33.677Z,0.90
2024-04-14T03:24:35.726Z,1.10
2024-04-14T03:29:37.788Z,0.80
2024-04-14T03:34:40.202Z,1.00
2024-04-14T03:39:42.289Z,1.37
2024-04-14T03:44:44.342Z,1.20
2024-04-14T03:49:46.348Z,0.87
2024-04-14T03:54:48.485Z,0.97
2024-04-14T03:59:51.298Z,1.07
2024-04-14T04:04:53.428Z,0.80
2024-04-14T04:09:55.478Z,0.90
2024-04-14T04:14:59.171Z,0.83
2024-04-14T04:20:01.286Z,0.80
2024-04-14T04:25:03.610Z,1.10
2024-04-14T04:30:06.165Z,0.90
2024-04-14T04:35:08.314Z,1.00
2024-04-14T04:40:10.616Z,1.27
2024-04-14T04:45:12.802Z,0.87
2024-04-14T04:50:14.877Z,0.93
2024-04-14T04:55:17.000Z,1.63
2024-04-14T05:00:19.025Z,1.10
2024-04-14T05:05:21.580Z,1.10
2024-04-14T05:10:23.829Z,1.10
2024-04-14T05:15:26.136Z,1.03
2024-04-14T05:20:28.135Z,1.10
2024-04-14T05:25:30.152Z,1.23
2024-04-14T05:30:32.266Z,1.20
2024-04-14T05:35:37.026Z,0.60
2024-04-14T05:40:39.058Z,0.87
2024-04-14T05:45:41.173Z,1.20
2024-04-14T05:50:43.267Z,1.23
2024-04-14T05:55:45.292Z,1.27
2024-04-14T06:00:47.515Z,1.37
2024-04-14T06:05:50.228Z,1.00
2024-04-14T06:10:54.568Z,0.90
2024-04-14T06:15:56.942Z,1.00
2024-04-14T06:20:58.997Z,1.13
2024-04-14T06:26:01.026Z,1.27
2024-04-14T06:31:03.343Z,1.20
2024-04-14T06:36:05.683Z,0.97
2024-04-14T06:41:07.679Z,0.90
2024-04-14T06:46:09.765Z,0.90
2024-04-14T06:51:11.951Z,0.90
2024-04-14T06:56:14.061Z,1.10
2024-04-14T07:01:16.101Z,1.13
2024-04-14T07:06:18.119Z,0.77
2024-04-14T07:11:20.188Z,0.90
2024-04-14T07:16:22.234Z,1.17
2024-04-14T07:21:24.347Z,0.80
2024-04-14T07:26:26.588Z,1.37
2024-04-14T07:31:28.695Z,0.87
2024-04-14T07:36:30.861Z,0.90
2024-04-14T07:41:36.294Z,0.97
2024-04-14T07:46:38.299Z,1.27
2024-04-14T07:51:40.445Z,0.83
2024-04-14T07:56:42.577Z,1.00
2024-04-14T08:01:44.703Z,1.17
2024-04-14T08:06:46.850Z,0.98
2024-04-14T08:11:50.105Z,1.57
2024-04-14T08:16:52.546Z,1.37
2024-04-14T08:21:54.645Z,1.30
2024-04-14T08:26:56.668Z,1.33
2024-04-14T08:32:00.832Z,0.90
2024-04-14T08:37:03.179Z,1.20
2024-04-14T08:42:09.338Z,1.37
2024-04-14T08:47:11.668Z,0.70
2024-04-14T08:52:16.499Z,0.70
2024-04-14T08:57:19.479Z,1.00
2024-04-14T09:02:21.545Z,1.47
2024-04-14T09:07:23.621Z,0.90
2024-04-14T09:12:25.827Z,0.87
2024-04-14T09:17:27.880Z,1.13
2024-04-14T09:22:30.109Z,0.97
2024-04-14T09:27:32.232Z,1.20
2024-04-14T09:32:34.599Z,0.87
2024-04-14T09:37:38.444Z,0.90
2024-04-14T09:42:41.167Z,0.97
2024-04-14T09:47:44.779Z,1.07
2024-04-14T09:52:50.185Z,1.10
2024-04-14T09:57:52.421Z,0.77
2024-04-14T10:03:07.875Z,1.20
2024-04-14T10:08:10.011Z,0.60
2024-04-14T10:13:14.006Z,0.90
2024-04-14T10:18:17.216Z,0.97
2024-04-14T10:23:20.303Z,0.73
2024-04-14T10:28:25.473Z,0.60
2024-04-14T10:33:28.860Z,1.07
2024-04-14T10:38:33.568Z,0.73
2024-04-14T10:43:36.465Z,0.80
2024-04-14T10:48:46.203Z,1.07
2024-04-14T10:53:49.781Z,0.70
2024-04-14T10:58:53.217Z,0.60
2024-04-14T11:03:55.949Z,1.17
2024-04-14T11:09:00.403Z,1.23
2024-04-14T11:14:03.236Z,0.50
2024-04-14T11:19:05.682Z,0.67
2024-04-14T11:24:11.253Z,0.27
2024-04-14T11:29:13.913Z,0.80
2024-04-14T11:34:16.365Z,0.80
2024-04-14T11:39:19.498Z,0.70
2024-04-14T11:44:21.522Z,0.63
2024-04-14T11:49:23.513Z,0.80
2024-04-14T11:54:25.596Z,0.80
2024-04-14T11:59:27.703Z,0.80
2024-04-14T12:04:29.835Z,0.47
2024-04-14T12:09:32.123Z,0.50
2024-04-14T12:14:34.183Z,0.50
2024-04-14T12:19:36.379Z,0.67
2024-04-14T12:24:38.411Z,0.40
2024-04-14T12:29:40.478Z,0.87
2024-04-14T12:34:42.506Z,0.97
2024-04-14T12:39:44.543Z,0.40
2024-04-14T12:44:46.662Z,0.87
2024-04-14T12:49:48.651Z,0.43
2024-04-14T12:54:50.741Z,0.47
2024-04-14T12:59:53.922Z,0.40
2024-04-14T13:04:56.147Z,0.63
2024-04-14T13:09:58.520Z,0.67
2024-04-14T13:15:00.737Z,0.37
2024-04-14T13:20:03.010Z,0.53
2024-04-14T13:25:09.594Z,0.73
2024-04-14T13:30:11.626Z,0.60
2024-04-14T13:35:13.663Z,0.37
2024-04-14T13:40:15.816Z,0.43
2024-04-14T13:45:17.882Z,0.57
2024-04-14T13:50:19.928Z,0.50
2024-04-14T13:55:22.805Z,0.37
2024-04-14T14:00:27.097Z,0.63
2024-04-14T14:05:29.122Z,0.40
2024-04-14T14:10:31.320Z,0.50
2024-04-14T14:15:33.322Z,0.40
2024-04-14T14:20:35.367Z,0.50
2024-04-14T14:25:37.843Z,0.40
2024-04-14T14:30:40.405Z,0.80
2024-04-14T14:36:02.210Z,0.40
2024-04-14T14:41:04.299Z,0.23
2024-04-14T14:46:07.182Z,0.40
2024-04-14T14:51:09.448Z,0.67
2024-04-14T14:56:11.537Z,0.30
2024-04-14T15:01:13.765Z,0.33
2024-04-14T15:06:16.068Z,0.53
2024-04-14T15:11:20.214Z,1.37
2024-04-14T15:27:29.780Z,0.87
2024-04-14T15:32:32.198Z,1.17
2024-04-14T15:37:34.220Z,0.70
2024-04-14T15:42:36.319Z,1.90
2024-04-14T15:47:38.441Z,1.10
2024-04-14T15:52:40.653Z,1.00
2024-04-14T15:57:42.829Z,1.43
2024-04-14T16:02:48.266Z,1.03
2024-04-14T16:07:51.132Z,1.53
2024-04-14T16:12:53.150Z,1.20
2024-04-14T16:17:55.225Z,1.43
2024-04-14T16:22:57.365Z,2.90
2024-04-14T16:27:59.554Z,2.73
2024-04-14T16:33:01.623Z,2.03
2024-04-14T16:38:03.991Z,0.75
2024-04-14T16:43:05.992Z,1.58
2024-04-14T16:48:08.289Z,0.57
2024-04-14T16:53:10.770Z,1.02
2024-04-14T16:58:14.098Z,1.05
2024-04-14T17:03:16.357Z,0.80
2024-04-14T17:08:18.711Z,1.23
2024-04-14T17:13:20.828Z,0.63
2024-04-14T17:18:22.975Z,0.60
2024-04-14T17:23:25.010Z,0.70
2024-04-14T17:28:27.125Z,1.10
2024-04-14T17:33:29.203Z,1.00
2024-04-14T17:38:31.309Z,0.38
2024-04-14T17:43:33.296Z,0.95
2024-04-14T17:48:35.606Z,0.60
2024-04-14T17:53:38.041Z,1.65
2024-04-14T17:58:40.123Z,0.70
2024-04-14T18:03:42.136Z,0.33
2024-04-14T18:08:44.145Z,0.80
2024-04-14T18:13:46.408Z,0.70
2024-04-14T18:18:48.465Z,0.33
2024-04-14T18:23:50.583Z,0.30
2024-04-14T18:28:52.865Z,0.90
2024-04-14T18:33:55.055Z,0.40
2024-04-14T18:38:57.219Z,0.63
2024-04-14T18:43:59.277Z,0.73
2024-04-14T18:49:01.404Z,0.50
2024-04-14T18:54:03.457Z,0.50
2024-04-14T18:59:05.427Z,0.63
2024-04-14T19:04:07.496Z,0.53
2024-04-14T19:09:09.493Z,0.10
2024-04-14T19:14:13.512Z,0.68
2024-04-14T19:19:15.781Z,0.50
2024-04-14T19:24:18.048Z,0.57
2024-04-14T19:29:20.248Z,0.30
2024-04-14T19:34:22.392Z,0.82
2024-04-14T19:39:24.332Z,0.68
2024-04-14T19:44:26.316Z,0.95
2024-04-14T19:49:28.300Z,0.65
2024-04-14T19:54:30.263Z,0.55
2024-04-14T19:59:32.791Z,0.50
2024-04-14T20:04:34.795Z,0.40
2024-04-14T20:09:36.820Z,0.47
2024-04-14T20:14:38.780Z,0.33
2024-04-14T20:19:40.884Z,0.50
2024-04-14T20:24:43.031Z,0.40
2024-04-14T20:29:45.061Z,0.40
2024-04-14T20:34:47.218Z,0.20
2024-04-14T20:39:49.186Z,0.60
2024-04-14T20:44:51.194Z,0.60
2024-04-14T20:49:53.191Z,0.77
2024-04-14T20:54:55.123Z,0.50
2024-04-14T20:59:57.127Z,0.20
2024-04-14T21:04:59.254Z,0.32
2024-04-14T21:10:01.320Z,0.60
2024-04-14T21:15:03.462Z,0.30
2024-04-14T21:20:05.682Z,0.60
2024-04-14T21:25:07.773Z,0.20
2024-04-14T21:30:10.084Z,0.30
2024-04-14T21:35:12.108Z,0.47
2024-04-14T21:40:14.415Z,1.30
2024-04-14T21:45:16.498Z,0.40
2024-04-14T21:50:18.615Z,0.30
2024-04-14T21:55:20.921Z,0.20
2024-04-14T22:00:22.983Z,0.47
2024-04-14T22:05:25.380Z,0.40
2024-04-14T22:10:27.468Z,0.43
2024-04-14T22:15:29.589Z,1.13
2024-04-14T22:20:31.584Z,0.57
2024-04-14T22:25:33.705Z,0.73
2024-04-14T22:30:36.402Z,0.40
2024-04-14T22:35:38.781Z,0.55
2024-04-14T22:40:40.908Z,0.60
2024-04-14T22:45:43.054Z,0.30
2024-04-14T22:50:45.105Z,0.40
2024-04-14T22:55:47.436Z,0.40
2024-04-14T23:00:49.543Z,0.60
2024-04-14T23:05:51.706Z,0.55
2024-04-14T23:10:53.737Z,0.15
2024-04-14T23:15:56.510Z,0.38
2024-04-14T23:20:58.915Z,0.45
2024-04-14T23:26:00.908Z,0.30
2024-04-14T23:31:02.987Z,0.20
2024-04-14T23:36:05.528Z,0.85
2024-04-14T23:41:07.500Z,0.60
2024-04-14T23:46:10.351Z,0.38
2024-04-14T23:51:12.487Z,0.50
2024-04-14T23:56:14.485Z,0.40
